Time;durP1;ratioP1;P1;durP2;ratioP2;P2;SDS_P1;SDS_P2;PMS_P1;PMS_P2;Temp;Humidity;BMP_temperature;BMP_pressure;BME280_temperature;BME280_humidity;BME280_pressure;Samples;Min_cycle;Max_cycle;Signal;HPM_P1;HPM_P2
2021/08/07 00:00:54;;;;;;;5.30;3.40;;;18.10;95.10;;;;;;5092843;28;20024;-52
2021/08/07 00:03:19;;;;;;;4.07;3.58;;;18.10;95.10;;;;;;5092453;28;20032;-54
2021/08/07 00:05:45;;;;;;;4.45;3.55;;;18.00;95.00;;;;;;5092404;28;20110;-55
2021/08/07 00:08:11;;;;;;;6.22;3.65;;;17.90;95.10;;;;;;5092559;28;20771;-53
2021/08/07 00:10:37;;;;;;;4.28;3.63;;;17.80;95.40;;;;;;5092758;28;20044;-55
2021/08/07 00:13:03;;;;;;;5.75;3.65;;;17.80;95.50;;;;;;5092904;28;20438;-54
2021/08/07 00:15:30;;;;;;;4.35;3.42;;;17.70;95.60;;;;;;5079843;28;20396;-55
2021/08/07 00:17:56;;;;;;;3.95;3.38;;;17.70;95.50;;;;;;5082339;28;20079;-56
2021/08/07 00:20:22;;;;;;;4.20;3.78;;;17.80;95.50;;;;;;5068836;28;20053;-54
2021/08/07 00:22:47;;;;;;;5.10;3.33;;;17.70;95.40;;;;;;5092729;28;20433;-55
2021/08/07 00:25:13;;;;;;;7.07;3.58;;;17.60;95.70;;;;;;5092188;28;20036;-52
2021/08/07 00:27:39;;;;;;;5.05;3.70;;;17.50;95.80;;;;;;5082419;28;20044;-51
2021/08/07 00:30:05;;;;;;;5.75;3.70;;;17.60;95.80;;;;;;5063999;28;20500;-52
2021/08/07 00:32:31;;;;;;;4.93;3.70;;;17.60;95.70;;;;;;5080898;28;20047;-50
2021/08/07 00:34:57;;;;;;;9.38;5.68;;;17.70;95.50;;;;;;5081124;28;20370;-51
2021/08/07 00:37:24;;;;;;;4.70;3.33;;;17.70;95.40;;;;;;5081354;28;20058;-51
2021/08/07 00:39:49;;;;;;;4.22;3.35;;;17.80;95.30;;;;;;5082432;28;20036;-51
2021/08/07 00:42:15;;;;;;;4.63;3.63;;;17.80;95.30;;;;;;5080655;28;20033;-49
2021/08/07 00:44:40;;;;;;;5.60;3.70;;;17.70;95.40;;;;;;5083270;28;20056;-49
2021/08/07 00:47:06;;;;;;;5.20;3.80;;;17.80;95.30;;;;;;5082304;28;20033;-54
2021/08/07 00:49:31;;;;;;;6.85;4.10;;;17.70;95.20;;;;;;5080204;28;20082;-51
2021/08/07 00:51:57;;;;;;;4.70;4.18;;;17.70;95.10;;;;;;5082284;28;20446;-54
2021/08/07 00:54:23;;;;;;;5.32;3.72;;;17.70;95.00;;;;;;5079876;28;20487;-55
2021/08/07 00:56:48;;;;;;;5.93;3.67;;;17.70;95.00;;;;;;5079305;28;20032;-56
2021/08/07 00:59:14;;;;;;;5.30;3.80;;;17.70;95.10;;;;;;5081824;28;20087;-51
2021/08/07 01:01:44;;;;;;;4.47;3.65;;;17.70;95.00;;;;;;5071669;28;20028;-48
2021/08/07 01:04:17;;;;;;;5.43;3.47;;;17.80;94.90;;;;;;5082751;28;20562;-48
2021/08/07 01:07:04;;;;;;;6.95;3.63;;;17.80;94.90;;;;;;5079316;28;20487;-53
2021/08/07 01:10:01;;;;;;;8.25;4.10;;;17.80;94.90;;;;;;5082418;28;20054;-53
2021/08/07 01:12:51;;;;;;;5.57;3.70;;;17.80;94.90;;;;;;5091005;28;20034;-53
2021/08/07 01:15:26;;;;;;;5.93;3.80;;;17.60;95.00;;;;;;5091663;28;20161;-55
2021/08/07 01:17:53;;;;;;;6.25;3.88;;;17.60;94.90;;;;;;5091868;28;20032;-53
2021/08/07 01:20:42;;;;;;;8.00;3.88;;;17.60;94.90;;;;;;5076961;28;20472;-53
2021/08/07 01:23:18;;;;;;;6.93;3.95;;;17.60;94.90;;;;;;5071531;28;20640;-52
2021/08/07 01:25:53;;;;;;;6.88;3.92;;;17.50;94.80;;;;;;5053197;28;20016;-57
2021/08/07 01:28:20;;;;;;;6.63;3.92;;;17.50;95.00;;;;;;5071095;28;20041;-53
2021/08/07 01:30:48;;;;;;;5.18;4.43;;;17.50;94.90;;;;;;5071567;28;20033;-49
2021/08/07 01:33:16;;;;;;;5.68;3.85;;;17.40;95.10;;;;;;5071156;28;20396;-52
2021/08/07 01:35:42;;;;;;;5.60;3.80;;;17.30;95.20;;;;;;5071203;28;20043;-54
2021/08/07 01:38:09;;;;;;;4.50;3.92;;;17.20;95.30;;;;;;5072668;28;20037;-54
2021/08/07 01:40:34;;;;;;;5.35;3.75;;;17.20;95.40;;;;;;5074960;28;20024;-55
2021/08/07 01:43:00;;;;;;;6.07;4.40;;;17.00;95.60;;;;;;5074799;28;20025;-52
2021/08/07 01:45:25;;;;;;;6.60;3.70;;;17.00;95.90;;;;;;5074578;28;20120;-55
2021/08/07 01:48:01;;;;;;;6.00;4.43;;;16.80;96.40;;;;;;5056668;28;20127;-53
2021/08/07 01:50:33;;;;;;;4.95;3.90;;;16.70;96.80;;;;;;5074809;28;20036;-50
2021/08/07 01:53:07;;;;;;;4.55;4.10;;;16.60;97.10;;;;;;5056629;28;20395;-51
2021/08/07 01:55:46;;;;;;;4.68;4.18;;;16.50;97.20;;;;;;5074418;28;20078;-52
2021/08/07 01:58:32;;;;;;;6.10;4.00;;;16.60;97.10;;;;;;5074413;28;20028;-55
2021/08/07 02:00:59;;;;;;;7.38;4.13;;;16.60;97.20;;;;;;5074570;28;20515;-48
2021/08/07 02:03:26;;;;;;;6.53;4.20;;;16.60;96.90;;;;;;5057583;28;20077;-49
2021/08/07 02:05:52;;;;;;;6.55;4.00;;;16.60;97.00;;;;;;5074224;28;20100;-54
2021/08/07 02:08:18;;;;;;;5.93;3.80;;;16.60;96.70;;;;;;5056664;28;20543;-52
2021/08/07 02:10:46;;;;;;;7.07;4.22;;;16.70;96.60;;;;;;5074230;28;20068;-50
2021/08/07 02:13:22;;;;;;;5.57;4.05;;;16.70;96.40;;;;;;5074476;28;20043;-52
2021/08/07 02:15:49;;;;;;;5.40;4.20;;;16.70;96.30;;;;;;5074281;28;20032;-51
2021/08/07 02:18:20;;;;;;;10.70;4.05;;;16.70;96.30;;;;;;5073917;28;20174;-55
2021/08/07 02:20:47;;;;;;;5.22;4.10;;;16.80;96.10;;;;;;5092785;28;20111;-54
2021/08/07 02:23:17;;;;;;;5.78;3.95;;;16.90;96.00;;;;;;5094171;28;20506;-56
2021/08/07 02:25:44;;;;;;;4.60;3.70;;;17.00;95.80;;;;;;5094085;28;20533;-51
2021/08/07 02:28:11;;;;;;;7.30;3.75;;;17.10;95.50;;;;;;5094231;28;20048;-53
2021/08/07 02:30:41;;;;;;;5.53;3.97;;;17.20;95.40;;;;;;5087944;28;20507;-51
2021/08/07 02:33:07;;;;;;;5.95;3.25;;;17.20;95.40;;;;;;5065142;28;20033;-56
2021/08/07 02:35:35;;;;;;;7.90;3.63;;;17.20;95.30;;;;;;5087986;28;20036;-50
2021/08/07 02:38:02;;;;;;;5.25;3.08;;;17.20;95.30;;;;;;5076247;28;20056;-55
2021/08/07 02:40:28;;;;;;;7.10;3.58;;;17.20;95.20;;;;;;5094030;28;20040;-52
2021/08/07 02:42:54;;;;;;;4.00;3.30;;;17.20;95.20;;;;;;5093845;28;20060;-53
2021/08/07 02:45:20;;;;;;;4.55;3.58;;;17.20;95.20;;;;;;5093347;28;20039;-52
2021/08/07 02:47:46;;;;;;;4.95;3.45;;;17.20;95.30;;;;;;5094083;28;20036;-52
2021/08/07 02:50:12;;;;;;;5.25;3.25;;;17.30;95.30;;;;;;5093896;28;20464;-53
2021/08/07 02:52:38;;;;;;;3.85;3.10;;;17.30;95.30;;;;;;5092418;28;20032;-49
2021/08/07 02:55:05;;;;;;;4.60;3.20;;;17.30;95.40;;;;;;5092127;28;20031;-51
2021/08/07 02:57:31;;;;;;;4.40;3.00;;;17.20;95.40;;;;;;5093176;28;20138;-50
2021/08/07 03:00:01;;;;;;;3.60;3.00;;;17.30;95.50;;;;;;5093701;28;20032;-49
2021/08/07 03:02:26;;;;;;;4.05;3.10;;;17.30;95.40;;;;;;5093787;28;20115;-50
2021/08/07 03:04:52;;;;;;;3.78;3.38;;;17.30;95.40;;;;;;5093687;28;20184;-50
2021/08/07 03:07:18;;;;;;;5.70;3.53;;;17.30;95.60;;;;;;5093212;28;20047;-55
2021/08/07 03:09:43;;;;;;;5.90;3.42;;;17.30;95.70;;;;;;5093401;28;20154;-54
2021/08/07 03:12:09;;;;;;;4.65;3.15;;;17.20;95.80;;;;;;5093283;28;20111;-54
2021/08/07 03:14:35;;;;;;;5.28;3.60;;;17.20;95.90;;;;;;5093211;28;20391;-53
2021/08/07 03:17:01;;;;;;;5.30;3.80;;;17.20;96.00;;;;;;5093161;28;20036;-51
2021/08/07 03:19:27;;;;;;;5.05;3.30;;;17.10;96.10;;;;;;5093209;28;20038;-51
2021/08/07 03:21:52;;;;;;;3.95;3.17;;;17.10;96.30;;;;;;5093075;28;20086;-53
2021/08/07 03:24:18;;;;;;;3.63;3.33;;;17.10;96.40;;;;;;5093623;28;20040;-54
2021/08/07 03:26:43;;;;;;;7.50;5.13;;;17.00;96.60;;;;;;5093189;28;20063;-50
2021/08/07 03:29:09;;;;;;;49.42;34.90;;;17.00;96.70;;;;;;5093118;28;20028;-54
2021/08/07 03:31:35;;;;;;;33.47;19.83;;;17.00;96.70;;;;;;5092900;28;20028;-53
2021/08/07 03:34:00;;;;;;;19.30;13.07;;;17.00;96.70;;;;;;5093022;28;20395;-53
2021/08/07 03:36:26;;;;;;;8.45;6.60;;;16.90;96.90;;;;;;5092604;28;20043;-55
2021/08/07 03:38:51;;;;;;;5.20;4.70;;;16.90;96.90;;;;;;5074833;28;20036;-54
2021/08/07 03:41:17;;;;;;;6.18;3.85;;;16.90;97.00;;;;;;5092761;28;20040;-51
2021/08/07 03:43:43;;;;;;;7.05;3.88;;;16.90;96.90;;;;;;5092708;28;20509;-56
2021/08/07 03:46:09;;;;;;;5.35;3.97;;;16.80;96.80;;;;;;5092725;28;20028;-55
2021/08/07 03:48:34;;;;;;;5.38;4.18;;;16.90;96.90;;;;;;5092744;28;20020;-55
2021/08/07 03:51:00;;;;;;;6.05;4.30;;;16.90;96.80;;;;;;5092921;28;20086;-49
2021/08/07 03:53:26;;;;;;;5.57;4.10;;;16.90;96.80;;;;;;5092949;28;20028;-52
2021/08/07 03:55:51;;;;;;;5.22;4.18;;;16.80;96.90;;;;;;5092691;28;20024;-51
2021/08/07 03:58:17;;;;;;;5.20;3.90;;;16.90;96.80;;;;;;5092573;28;20032;-52
2021/08/07 04:00:42;;;;;;;5.75;4.30;;;16.80;96.60;;;;;;5092375;28;20037;-53
2021/08/07 04:03:08;;;;;;;5.95;4.47;;;16.80;96.70;;;;;;5092179;28;20109;-53
2021/08/07 04:05:34;;;;;;;5.63;4.47;;;16.80;96.40;;;;;;5073836;28;20058;-52
2021/08/07 04:08:04;;;;;;;7.32;4.65;;;16.80;96.50;;;;;;5092432;28;20028;-52
2021/08/07 04:10:30;;;;;;;6.55;4.50;;;16.70;96.60;;;;;;5092519;28;20407;-50
2021/08/07 04:12:55;;;;;;;5.18;4.20;;;16.70;96.50;;;;;;5092699;28;20028;-52
2021/08/07 04:15:21;;;;;;;5.43;4.72;;;16.80;96.40;;;;;;5092107;28;20047;-51
2021/08/07 04:17:46;;;;;;;5.25;3.70;;;16.80;96.20;;;;;;5092081;28;20036;-49
2021/08/07 04:20:12;;;;;;;6.47;3.83;;;16.80;96.20;;;;;;5059993;28;20025;-51
2021/08/07 04:22:38;;;;;;;5.75;3.78;;;16.80;96.30;;;;;;5072082;28;20036;-52
2021/08/07 04:25:05;;;;;;;4.70;4.20;;;17.00;96.00;;;;;;5072171;28;20499;-52
2021/08/07 04:27:31;;;;;;;5.80;4.18;;;17.00;95.80;;;;;;5071153;28;20036;-54
2021/08/07 04:29:56;;;;;;;5.50;3.70;;;17.00;95.80;;;;;;5071650;28;20112;-53
2021/08/07 04:32:23;;;;;;;4.00;3.58;;;17.10;95.60;;;;;;5071760;28;20064;-54
2021/08/07 04:34:49;;;;;;;3.92;3.30;;;17.10;95.50;;;;;;5071610;28;20487;-51
2021/08/07 04:37:14;;;;;;;5.65;3.65;;;17.10;95.50;;;;;;5071366;28;20028;-51
2021/08/07 04:39:40;;;;;;;5.90;4.07;;;17.10;95.40;;;;;;5071483;28;20036;-51
2021/08/07 04:42:06;;;;;;;5.03;3.47;;;17.20;95.30;;;;;;5071727;28;20037;-54
2021/08/07 04:44:31;;;;;;;6.38;3.53;;;17.10;95.50;;;;;;5071856;28;20039;-50
2021/08/07 04:46:57;;;;;;;4.50;3.47;;;17.10;95.30;;;;;;5071813;28;20036;-49
2021/08/07 04:49:22;;;;;;;6.38;4.60;;;17.10;95.30;;;;;;5071695;28;20028;-52
2021/08/07 04:51:48;;;;;;;13.75;12.43;;;17.20;95.20;;;;;;5071775;28;20041;-53
2021/08/07 04:54:14;;;;;;;5.88;5.35;;;17.20;95.10;;;;;;5072090;28;20403;-54
2021/08/07 04:56:39;;;;;;;9.45;3.47;;;17.30;95.20;;;;;;5071301;28;20045;-55
2021/08/07 04:59:05;;;;;;;4.00;3.30;;;17.30;95.00;;;;;;5053562;28;20036;-53
2021/08/07 05:01:31;;;;;;;7.80;4.60;;;17.30;94.80;;;;;;5071383;28;20032;-52
2021/08/07 05:03:57;;;;;;;6.68;5.97;;;17.30;94.80;;;;;;5080214;28;20035;-52
2021/08/07 05:06:23;;;;;;;5.40;3.95;;;17.30;94.90;;;;;;5091987;28;20025;-55
2021/08/07 05:08:48;;;;;;;3.92;3.17;;;17.40;94.80;;;;;;5092156;28;20076;-53
2021/08/07 05:11:14;;;;;;;4.43;3.40;;;17.30;94.80;;;;;;5091451;28;20041;-51
2021/08/07 05:13:39;;;;;;;8.95;3.92;;;17.30;94.90;;;;;;5093997;28;20040;-54
2021/08/07 05:16:05;;;;;;;5.20;3.50;;;17.40;94.60;;;;;;5095349;28;20111;-54
2021/08/07 05:18:31;;;;;;;6.18;3.92;;;17.40;94.70;;;;;;5095739;28;20043;-57
2021/08/07 05:20:56;;;;;;;4.70;4.22;;;17.40;94.80;;;;;;5095522;28;20115;-54
2021/08/07 05:23:22;;;;;;;6.32;3.97;;;17.30;94.70;;;;;;5077265;28;20039;-50
2021/08/07 05:25:47;;;;;;;4.70;3.13;;;17.40;94.50;;;;;;5077091;28;20782;-54
2021/08/07 05:28:13;;;;;;;5.85;3.45;;;17.50;94.50;;;;;;5095248;28;20039;-53
2021/08/07 05:30:39;;;;;;;3.60;3.13;;;17.60;94.40;;;;;;5094803;28;20036;-54
2021/08/07 05:33:05;;;;;;;5.82;3.60;;;17.70;94.20;;;;;;5095450;28;20043;-50
2021/08/07 05:35:30;;;;;;;5.55;3.20;;;17.90;94.10;;;;;;5095175;28;20109;-51
2021/08/07 05:37:56;;;;;;;7.25;3.20;;;17.90;93.90;;;;;;5095364;28;20031;-54
2021/08/07 05:40:22;;;;;;;3.97;3.13;;;18.00;93.80;;;;;;5095311;28;20024;-53
2021/08/07 05:42:50;;;;;;;3.45;3.13;;;18.10;93.50;;;;;;5095448;28;20404;-55
2021/08/07 05:45:16;;;;;;;3.38;2.90;;;18.10;93.50;;;;;;5094849;28;20024;-55
2021/08/07 05:47:41;;;;;;;3.95;2.72;;;18.00;93.60;;;;;;5077044;28;20031;-55
2021/08/07 05:50:09;;;;;;;4.47;2.90;;;18.00;93.30;;;;;;5095807;28;20032;-54
2021/08/07 05:52:35;;;;;;;4.43;3.10;;;18.00;93.60;;;;;;5094993;28;20470;-54
2021/08/07 05:55:01;;;;;;;6.65;3.45;;;18.00;93.70;;;;;;5094407;28;20024;-55
2021/08/07 05:57:27;;;;;;;4.40;3.03;;;18.00;93.80;;;;;;5094455;28;20032;-54
2021/08/07 05:59:52;;;;;;;4.55;2.80;;;18.20;93.50;;;;;;5094242;28;20460;-56
2021/08/07 06:02:18;;;;;;;4.72;3.20;;;18.10;93.30;;;;;;5094553;28;20543;-53
2021/08/07 06:04:43;;;;;;;3.85;2.88;;;18.20;93.50;;;;;;5094619;28;20518;-52
2021/08/07 06:07:09;;;;;;;6.00;4.22;;;18.20;93.50;;;;;;5094498;28;20485;-54
2021/08/07 06:09:35;;;;;;;3.85;3.13;;;18.30;93.50;;;;;;5076341;28;20480;-55
2021/08/07 06:12:00;;;;;;;4.00;3.60;;;18.40;93.30;;;;;;5094323;28;20035;-57
2021/08/07 06:14:26;;;;;;;4.60;2.90;;;18.40;93.50;;;;;;5094395;28;20484;-50
2021/08/07 06:16:51;;;;;;;4.80;3.10;;;18.50;93.30;;;;;;5094083;28;20039;-52
2021/08/07 06:19:17;;;;;;;4.00;3.05;;;18.70;93.10;;;;;;5094423;28;20115;-52
2021/08/07 06:21:43;;;;;;;3.15;2.85;;;18.70;93.00;;;;;;5094160;28;20332;-51
2021/08/07 06:24:09;;;;;;;4.93;2.90;;;18.70;93.10;;;;;;5095372;28;20062;-54
2021/08/07 06:26:34;;;;;;;5.28;3.20;;;18.60;93.50;;;;;;5094635;28;20035;-56
2021/08/07 06:29:00;;;;;;;5.47;3.03;;;18.40;94.10;;;;;;5095906;28;20039;-49
2021/08/07 06:31:25;;;;;;;4.70;3.03;;;18.20;94.30;;;;;;5094981;28;20038;-53
2021/08/07 06:33:53;;;;;;;4.18;3.00;;;18.30;94.40;;;;;;5094702;28;20123;-54
2021/08/07 06:36:18;;;;;;;3.70;3.00;;;18.40;94.30;;;;;;5095316;28;20086;-58
2021/08/07 06:38:44;;;;;;;3.50;2.90;;;18.40;94.50;;;;;;5095057;28;20032;-55
2021/08/07 06:41:10;;;;;;;5.03;2.70;;;18.30;94.50;;;;;;5094795;28;20051;-54
2021/08/07 06:43:36;;;;;;;3.40;2.80;;;18.40;94.50;;;;;;5093770;28;20040;-53
2021/08/07 06:46:01;;;;;;;4.57;3.53;;;18.50;94.20;;;;;;5094116;28;20429;-57
2021/08/07 06:48:27;;;;;;;4.75;3.38;;;18.50;94.00;;;;;;5076329;28;20058;-58
2021/08/07 06:50:53;;;;;;;6.20;3.28;;;18.70;93.60;;;;;;5093734;28;20082;-51
2021/08/07 06:53:19;;;;;;;5.00;3.00;;;18.70;93.60;;;;;;5092875;28;20036;-49
2021/08/07 06:55:44;;;;;;;4.25;3.10;;;18.80;93.40;;;;;;5093634;28;20032;-52
2021/08/07 06:58:10;;;;;;;5.22;2.80;;;18.90;93.20;;;;;;5093831;28;20039;-49
2021/08/07 07:00:39;;;;;;;6.45;3.95;;;19.00;93.20;;;;;;5093589;28;20097;-55
2021/08/07 07:03:06;;;;;;;3.35;2.63;;;18.90;93.10;;;;;;5093557;28;20028;-54
2021/08/07 07:05:33;;;;;;;3.35;2.83;;;18.90;93.30;;;;;;5093348;28;20060;-57
2021/08/07 07:07:59;;;;;;;3.58;2.70;;;18.90;93.50;;;;;;5075414;28;20036;-51
2021/08/07 07:10:25;;;;;;;3.72;3.25;;;18.90;93.30;;;;;;5093630;28;20020;-51
2021/08/07 07:12:50;;;;;;;4.68;2.90;;;18.90;93.40;;;;;;5093506;28;20035;-49
2021/08/07 07:15:17;;;;;;;3.10;2.72;;;19.10;93.00;;;;;;5093570;28;20036;-56
2021/08/07 07:17:43;;;;;;;3.95;2.90;;;19.10;92.80;;;;;;5093154;28;20032;-56
2021/08/07 07:20:09;;;;;;;4.90;3.00;;;19.30;92.60;;;;;;5061858;28;20071;-55
2021/08/07 07:22:35;;;;;;;5.40;3.00;;;19.40;92.60;;;;;;5073153;28;20080;-54
2021/08/07 07:25:01;;;;;;;4.28;2.80;;;19.30;92.60;;;;;;5072767;28;20028;-51
2021/08/07 07:27:27;;;;;;;5.07;2.85;;;19.40;92.60;;;;;;5072168;28;20123;-51
2021/08/07 07:29:53;;;;;;;3.22;2.72;;;19.50;92.40;;;;;;5079060;28;20119;-55
2021/08/07 07:32:18;;;;;;;3.33;2.50;;;19.60;92.40;;;;;;5090416;28;20070;-50
2021/08/07 07:34:44;;;;;;;6.40;3.50;;;19.60;92.00;;;;;;5092770;28;20031;-52
2021/08/07 07:37:10;;;;;;;5.88;2.80;;;19.80;92.00;;;;;;5092289;28;20031;-52
2021/08/07 07:39:35;;;;;;;3.58;2.85;;;19.80;91.70;;;;;;5092734;28;20031;-51
2021/08/07 07:42:01;;;;;;;5.65;3.30;;;19.80;91.90;;;;;;5092526;28;20388;-51
2021/08/07 07:44:27;;;;;;;4.18;2.65;;;19.70;92.00;;;;;;5092976;28;20050;-53
2021/08/07 07:46:52;;;;;;;4.18;3.05;;;19.80;91.90;;;;;;5092339;28;20032;-55
2021/08/07 07:49:18;;;;;;;5.55;2.90;;;20.00;91.30;;;;;;5074701;28;20567;-54
2021/08/07 07:51:43;;;;;;;5.40;3.17;;;20.00;91.40;;;;;;5093322;28;20487;-55
2021/08/07 07:54:09;;;;;;;4.97;2.50;;;20.20;91.30;;;;;;5092712;28;20040;-55
2021/08/07 07:56:34;;;;;;;3.60;2.70;;;20.30;91.00;;;;;;5092483;28;20459;-55
2021/08/07 07:59:00;;;;;;;4.38;2.65;;;20.40;90.60;;;;;;5096026;28;20032;-54
2021/08/07 08:01:26;;;;;;;3.25;2.45;;;20.20;90.90;;;;;;5095462;28;20089;-53
2021/08/07 08:03:51;;;;;;;3.58;2.60;;;20.30;91.00;;;;;;5092760;28;20638;-54
2021/08/07 08:06:17;;;;;;;4.45;2.22;;;20.40;90.40;;;;;;5092221;28;20036;-54
2021/08/07 08:08:42;;;;;;;3.10;2.78;;;20.20;90.80;;;;;;5092566;28;20077;-53
2021/08/07 08:11:08;;;;;;;3.88;2.40;;;20.20;90.60;;;;;;5092361;28;20066;-51
2021/08/07 08:13:34;;;;;;;3.05;2.38;;;20.20;90.50;;;;;;5073975;28;20039;-55
2021/08/07 08:15:59;;;;;;;5.25;2.45;;;20.20;90.90;;;;;;5092131;28;20040;-54
2021/08/07 08:18:25;;;;;;;3.22;2.30;;;20.30;90.30;;;;;;5074702;28;20040;-56
2021/08/07 08:20:51;;;;;;;3.47;2.40;;;20.40;89.80;;;;;;5092048;28;20028;-55
2021/08/07 08:23:17;;;;;;;5.85;3.03;;;20.50;90.20;;;;;;5074030;28;20096;-54
2021/08/07 08:25:43;;;;;;;4.65;2.38;;;20.80;89.80;;;;;;5091618;28;20032;-57
2021/08/07 08:28:08;;;;;;;5.65;2.50;;;20.80;90.00;;;;;;5073503;28;20403;-53
2021/08/07 08:30:35;;;;;;;3.17;2.85;;;20.70;89.40;;;;;;5091890;28;20036;-54
2021/08/07 08:33:01;;;;;;;4.30;2.50;;;20.50;90.40;;;;;;5091724;28;20028;-52
2021/08/07 08:35:26;;;;;;;6.30;2.63;;;20.50;90.10;;;;;;5074229;28;20480;-56
2021/08/07 08:37:52;;;;;;;5.60;2.58;;;20.80;89.60;;;;;;5091883;28;20036;-52
2021/08/07 08:40:18;;;;;;;4.10;2.58;;;21.00;88.60;;;;;;5092013;28;20050;-56
2021/08/07 08:42:44;;;;;;;5.43;2.55;;;21.10;87.20;;;;;;5091948;28;20392;-53
2021/08/07 08:45:10;;;;;;;4.15;2.30;;;21.10;88.10;;;;;;5092257;28;20028;-54
2021/08/07 08:47:37;;;;;;;4.65;2.70;;;21.20;87.90;;;;;;5094371;28;20119;-53
2021/08/07 08:50:04;;;;;;;3.35;2.50;;;21.30;87.90;;;;;;5096307;28;20526;-53
2021/08/07 08:52:31;;;;;;;3.17;2.22;;;21.40;86.70;;;;;;5095778;28;20024;-55
2021/08/07 08:54:58;;;;;;;4.53;2.10;;;21.50;85.20;;;;;;5095140;28;20024;-53
2021/08/07 08:57:24;;;;;;;3.42;2.42;;;21.40;84.80;;;;;;5096130;28;20454;-50
2021/08/07 08:59:50;;;;;;;4.13;2.70;;;21.20;84.60;;;;;;5096248;28;20119;-52
2021/08/07 09:02:16;;;;;;;5.07;2.55;;;21.10;86.00;;;;;;5096792;28;20036;-55
2021/08/07 09:04:42;;;;;;;2.92;2.10;;;21.30;84.70;;;;;;5095798;28;20079;-56
2021/08/07 09:07:07;;;;;;;5.38;2.85;;;21.40;84.10;;;;;;5095582;28;20024;-53
2021/08/07 09:09:37;;;;;;;3.60;2.42;;;21.50;84.60;;;;;;5095886;28;20032;-56
2021/08/07 09:12:04;;;;;;;3.33;2.45;;;21.60;85.10;;;;;;5077408;28;20043;-53
2021/08/07 09:14:38;;;;;;;4.75;2.40;;;21.90;84.10;;;;;;5095722;28;20510;-57
2021/08/07 09:17:07;;;;;;;4.25;2.53;;;21.70;83.90;;;;;;5096451;28;20081;-52
2021/08/07 09:19:41;;;;;;;4.85;2.65;;;21.60;83.80;;;;;;5095077;28;20032;-54
2021/08/07 09:22:08;;;;;;;;;;;21.50;84.50;;;;;;5096032;28;20036;-54
2021/08/07 09:24:34;;;;;;;2.85;2.47;;;21.40;85.80;;;;;;5095995;28;19904;-54
2021/08/07 09:27:02;;;;;;;5.65;3.03;;;21.50;86.00;;;;;;5095107;28;20028;-50
2021/08/07 09:29:41;;;;;;;5.05;2.20;;;21.80;85.60;;;;;;5092105;28;20040;-53
2021/08/07 09:32:07;;;;;;;4.72;2.92;;;21.90;83.80;;;;;;5057569;28;20047;-56
2021/08/07 09:34:32;;;;;;;3.17;2.38;;;21.80;83.60;;;;;;5074751;28;20024;-50
2021/08/07 09:36:58;;;;;;;3.05;2.30;;;21.70;83.70;;;;;;5077794;28;20089;-56
2021/08/07 09:39:41;;;;;;;2.63;2.22;;;22.00;84.00;;;;;;5083829;28;20108;-56
2021/08/07 09:42:07;;;;;;;3.03;2.30;;;22.20;83.00;;;;;;5080565;28;20028;-57
2021/08/07 09:44:35;;;;;;;3.00;2.50;;;22.30;82.90;;;;;;5085248;28;20075;-52
2021/08/07 09:47:09;;;;;;;3.05;2.50;;;22.60;82.30;;;;;;5083482;28;20070;-56
2021/08/07 09:49:42;;;;;;;;;;;22.50;82.90;;;;;;5083400;28;20484;-53
2021/08/07 09:52:09;;;;;;;4.72;2.60;;;22.60;82.10;;;;;;5083797;28;20427;-57
2021/08/07 09:54:41;;;;;;;3.78;2.70;;;22.50;82.40;;;;;;5065066;28;20041;-55
2021/08/07 09:57:10;;;;;;;3.70;2.95;;;22.70;82.00;;;;;;5083651;28;20117;-54
2021/08/07 09:59:48;;;;;;;2.75;2.33;;;23.10;81.20;;;;;;5067468;28;20373;-52
2021/08/07 10:02:26;;;;;;;3.33;2.60;;;23.00;81.70;;;;;;5085894;28;20064;-55
2021/08/07 10:04:53;;;;;;;4.60;2.10;;;22.80;82.10;;;;;;5087506;28;20388;-53
2021/08/07 10:07:18;;;;;;;2.90;2.50;;;23.10;81.80;;;;;;5085244;28;20055;-54
2021/08/07 10:09:44;;;;;;;2.67;2.20;;;23.10;79.80;;;;;;5082262;28;20056;-54
2021/08/07 10:12:12;;;;;;;3.03;2.40;;;23.10;79.10;;;;;;5085588;28;20036;-56
2021/08/07 10:14:39;;;;;;;3.65;2.47;;;23.10;78.70;;;;;;5083411;28;20020;-51
2021/08/07 10:17:07;;;;;;;3.05;2.30;;;23.20;79.30;;;;;;5084062;28;20036;-51
2021/08/07 10:19:34;;;;;;;5.20;2.58;;;23.30;79.40;;;;;;5085337;28;20047;-52
2021/08/07 10:22:01;;;;;;;3.80;2.47;;;23.30;79.80;;;;;;5050331;28;20032;-50
2021/08/07 10:24:28;;;;;;;5.25;3.50;;;23.40;79.00;;;;;;5080676;28;20047;-49
2021/08/07 10:26:58;;;;;;;7.13;5.57;;;23.70;79.20;;;;;;5083355;28;20047;-53
2021/08/07 10:29:44;;;;;;;5.35;4.55;;;23.90;78.70;;;;;;5063260;28;20062;-52
2021/08/07 10:32:12;;;;;;;3.03;2.40;;;23.90;78.30;;;;;;5081230;28;20479;-55
2021/08/07 10:34:41;;;;;;;4.97;2.85;;;23.70;78.30;;;;;;5087511;28;20046;-51
2021/08/07 10:37:07;;;;;;;3.10;2.38;;;23.50;79.30;;;;;;5079759;28;20052;-55
2021/08/07 10:39:33;;;;;;;3.13;2.45;;;23.30;77.90;;;;;;5083115;28;20059;-56
2021/08/07 10:42:01;;;;;;;5.72;2.50;;;23.10;78.90;;;;;;5081374;28;20067;-55
2021/08/07 10:44:28;;;;;;;4.72;2.47;;;23.10;78.70;;;;;;5087009;28;20043;-52
2021/08/07 10:46:55;;;;;;;3.85;2.50;;;23.00;78.20;;;;;;5083090;28;20090;-53
2021/08/07 10:49:38;;;;;;;3.22;2.35;;;23.10;79.50;;;;;;5084811;28;20028;-50
2021/08/07 10:52:33;;;;;;;2.42;2.13;;;23.30;78.90;;;;;;5083618;28;20464;-52
2021/08/07 10:54:59;;;;;;;2.85;2.20;;;23.30;78.70;;;;;;5061587;28;20549;-57
2021/08/07 10:57:34;;;;;;;2.85;2.30;;;23.70;78.40;;;;;;5083488;28;20131;-51
2021/08/07 11:00:16;;;;;;;6.38;2.40;;;23.50;78.80;;;;;;5081347;28;20028;-50
2021/08/07 11:02:43;;;;;;;3.28;2.17;;;23.60;78.60;;;;;;5093862;28;20050;-50
2021/08/07 11:05:09;;;;;;;3.30;2.30;;;23.50;78.90;;;;;;5088730;28;20036;-55
2021/08/07 11:07:36;;;;;;;3.58;2.63;;;23.40;78.70;;;;;;5093825;28;20479;-55
2021/08/07 11:10:04;;;;;;;3.67;2.53;;;23.50;79.00;;;;;;5093236;28;20063;-59
2021/08/07 11:12:31;;;;;;;6.57;3.00;;;23.80;78.70;;;;;;5089203;28;20029;-59
2021/08/07 11:15:00;;;;;;;4.82;2.60;;;24.10;77.40;;;;;;5073399;28;20078;-59
2021/08/07 11:17:27;;;;;;;4.22;2.60;;;24.10;77.00;;;;;;5055702;28;20040;-60
2021/08/07 11:20:03;;;;;;;6.47;3.55;;;23.80;77.40;;;;;;5072756;28;20124;-59
2021/08/07 11:22:32;;;;;;;5.97;4.10;;;23.80;78.70;;;;;;5073772;28;20071;-59
2021/08/07 11:25:03;;;;;;;5.22;2.92;;;24.00;77.50;;;;;;5072884;28;20028;-59
2021/08/07 11:27:55;;;;;;;3.25;2.42;;;24.20;76.40;;;;;;5072170;28;20036;-59
2021/08/07 11:30:29;;;;;;;4.07;2.58;;;24.40;75.80;;;;;;5083115;28;20451;-56
2021/08/07 11:32:58;;;;;;;4.35;2.95;;;24.50;76.60;;;;;;5094229;28;20110;-58
2021/08/07 11:38:10;;;;;;;5.03;3.10;;;24.80;74.20;;;;;;5092819;28;20455;-56
2021/08/07 11:40:38;;;;;;;4.05;2.45;;;25.10;73.80;;;;;;5093274;28;20095;-59
2021/08/07 11:43:05;;;;;;;3.22;2.38;;;24.80;73.00;;;;;;5093231;28;20044;-58
2021/08/07 11:45:31;;;;;;;4.60;2.70;;;24.80;73.20;;;;;;5093252;28;20135;-57
2021/08/07 11:47:57;;;;;;;4.18;2.60;;;24.70;73.40;;;;;;5093706;28;20047;-59
2021/08/07 11:50:24;;;;;;;3.40;2.58;;;24.90;73.80;;;;;;5074308;28;20024;-56
2021/08/07 11:52:50;;;;;;;3.35;2.28;;;24.80;74.00;;;;;;5083584;28;20031;-58
2021/08/07 11:55:16;;;;;;;3.60;2.30;;;24.70;74.10;;;;;;5086699;28;20016;-58
2021/08/07 11:57:42;;;;;;;6.50;3.80;;;24.60;74.40;;;;;;5088842;28;20036;-59
2021/08/07 12:00:27;;;;;;;4.20;2.85;;;24.60;74.20;;;;;;5087347;28;20492;-59
2021/08/07 12:03:15;;;;;;;3.00;2.50;;;24.60;75.00;;;;;;5089568;28;20032;-57
2021/08/07 12:05:57;;;;;;;4.95;2.67;;;24.60;73.20;;;;;;5079579;28;20032;-59
2021/08/07 12:08:31;;;;;;;5.00;2.53;;;24.70;72.60;;;;;;5090331;28;20032;-57
2021/08/07 12:10:59;;;;;;;3.15;2.65;;;24.60;72.90;;;;;;5087728;28;20115;-57
2021/08/07 12:13:29;;;;;;;3.63;2.70;;;24.70;73.10;;;;;;5091422;28;20090;-58
2021/08/07 12:16:05;;;;;;;3.85;2.80;;;24.80;73.00;;;;;;5091994;28;20030;-58
2021/08/07 12:18:46;;;;;;;4.10;2.83;;;24.80;72.70;;;;;;5089155;28;20028;-58
2021/08/07 12:21:27;;;;;;;6.18;2.42;;;24.80;73.30;;;;;;5088498;28;20103;-56
2021/08/07 12:23:59;;;;;;;3.70;2.33;;;24.80;72.70;;;;;;5089048;28;20020;-57
2021/08/07 12:26:26;;;;;;;6.43;2.60;;;24.80;73.50;;;;;;5065044;28;20086;-57
2021/08/07 12:28:58;;;;;;;6.93;5.60;;;24.90;72.50;;;;;;5078305;28;20035;-57
2021/08/07 12:31:37;;;;;;;3.97;2.90;;;24.80;73.70;;;;;;5078406;28;20032;-56
2021/08/07 12:34:12;;;;;;;3.22;2.63;;;25.00;71.90;;;;;;5078778;28;20051;-58
2021/08/07 12:36:38;;;;;;;4.38;2.80;;;24.70;72.20;;;;;;5078459;28;20043;-56
2021/08/07 12:39:04;;;;;;;3.65;2.80;;;24.70;72.80;;;;;;5079289;28;20028;-57
2021/08/07 12:41:30;;;;;;;3.78;2.45;;;24.60;73.10;;;;;;5079904;28;20036;-57
2021/08/07 12:43:55;;;;;;;3.72;2.55;;;24.70;72.80;;;;;;5067127;28;20020;-56
2021/08/07 12:46:21;;;;;;;5.97;3.05;;;24.50;72.90;;;;;;5088837;28;20036;-57
2021/08/07 12:49:01;;;;;;;3.13;2.53;;;24.30;73.60;;;;;;5082191;28;20025;-57
2021/08/07 12:51:33;;;;;;;3.45;2.45;;;24.30;72.70;;;;;;5086697;28;20055;-57
2021/08/07 12:54:02;;;;;;;3.88;2.65;;;24.40;72.50;;;;;;5088100;28;20036;-57